sensor_id;sensor_type;location;lat;lon;timestamp;pressure;altitude;pressure_sealevel;temperature;humidity
71907;BME280;59781;52.090;5.030;2023-04-04T00:01:32;103028.59;;;3.31;100.00
71907;BME280;59781;52.090;5.030;2023-04-04T00:03:58;103032.50;;;3.03;100.00
71907;BME280;59781;52.090;5.030;2023-04-04T00:06:23;103028.28;;;2.99;100.00
71907;BME280;59781;52.090;5.030;2023-04-04T00:08:49;103025.28;;;3.07;100.00
71907;BME280;59781;52.090;5.030;2023-04-04T00:11:15;103020.06;;;3.04;100.00
71907;BME280;59781;52.090;5.030;2023-04-04T00:13:41;103025.56;;;2.80;100.00
71907;BME280;59781;52.090;5.030;2023-04-04T00:16:07;103024.63;;;2.81;100.00
71907;BME280;59781;52.090;5.030;2023-04-04T00:18:32;103017.44;;;2.83;100.00
71907;BME280;59781;52.090;5.030;2023-04-04T00:20:58;103016.69;;;3.00;100.00
71907;BME280;59781;52.090;5.030;2023-04-04T00:23:24;103013.72;;;2.87;100.00
71907;BME280;59781;52.090;5.030;2023-04-04T00:25:50;103006.00;;;2.81;100.00
71907;BME280;59781;52.090;5.030;2023-04-04T00:28:20;103006.63;;;2.68;100.00
71907;BME280;59781;52.090;5.030;2023-04-04T00:30:47;102998.56;;;2.69;100.00
71907;BME280;59781;52.090;5.030;2023-04-04T00:33:13;102996.94;;;2.65;100.00
71907;BME280;59781;52.090;5.030;2023-04-04T00:35:40;103008.59;;;2.63;100.00
71907;BME280;59781;52.090;5.030;2023-04-04T00:38:06;103002.69;;;2.56;100.00
71907;BME280;59781;52.090;5.030;2023-04-04T00:40:42;103009.19;;;2.69;100.00
71907;BME280;59781;52.090;5.030;2023-04-04T00:43:13;102993.63;;;2.60;100.00
71907;BME280;59781;52.090;5.030;2023-04-04T00:45:40;102998.88;;;2.82;100.00
71907;BME280;59781;52.090;5.030;2023-04-04T00:48:06;102993.56;;;2.62;100.00
71907;BME280;59781;52.090;5.030;2023-04-04T00:50:32;102998.50;;;2.71;100.00
71907;BME280;59781;52.090;5.030;2023-04-04T00:52:59;102997.88;;;2.44;100.00
71907;BME280;59781;52.090;5.030;2023-04-04T00:55:25;103001.28;;;2.47;100.00
71907;BME280;59781;52.090;5.030;2023-04-04T00:57:51;103003.81;;;2.50;100.00
71907;BME280;59781;52.090;5.030;2023-04-04T01:00:18;103001.00;;;2.33;100.00
71907;BME280;59781;52.090;5.030;2023-04-04T01:02:45;103000.81;;;2.38;100.00
71907;BME280;59781;52.090;5.030;2023-04-04T01:05:11;103000.00;;;2.36;100.00
71907;BME280;59781;52.090;5.030;2023-04-04T01:07:38;102998.03;;;2.41;100.00
71907;BME280;59781;52.090;5.030;2023-04-04T01:10:06;103002.47;;;2.40;100.00
71907;BME280;59781;52.090;5.030;2023-04-04T01:12:33;103001.69;;;2.38;100.00
71907;BME280;59781;52.090;5.030;2023-04-04T01:15:00;103002.25;;;2.24;100.00
71907;BME280;59781;52.090;5.030;2023-04-04T01:17:27;102997.47;;;2.33;100.00
71907;BME280;59781;52.090;5.030;2023-04-04T01:22:43;102997.53;;;2.31;100.00
71907;BME280;59781;52.090;5.030;2023-04-04T01:25:13;102997.69;;;2.28;100.00
71907;BME280;59781;52.090;5.030;2023-04-04T01:27:45;102988.41;;;2.16;100.00
71907;BME280;59781;52.090;5.030;2023-04-04T01:30:15;102994.28;;;2.45;100.00
71907;BME280;59781;52.090;5.030;2023-04-04T01:32:44;102994.28;;;2.65;100.00
71907;BME280;59781;52.090;5.030;2023-04-04T01:40:31;102993.94;;;2.12;100.00
71907;BME280;59781;52.090;5.030;2023-04-04T01:43:02;102995.88;;;2.28;100.00
71907;BME280;59781;52.090;5.030;2023-04-04T01:45:30;102992.84;;;2.16;100.00
71907;BME280;59781;52.090;5.030;2023-04-04T01:47:58;102993.16;;;2.30;100.00
71907;BME280;59781;52.090;5.030;2023-04-04T01:50:24;102993.56;;;2.41;100.00
71907;BME280;59781;52.090;5.030;2023-04-04T01:52:51;102994.16;;;2.27;100.00
71907;BME280;59781;52.090;5.030;2023-04-04T01:55:17;102992.78;;;2.39;100.00
71907;BME280;59781;52.090;5.030;2023-04-04T01:57:43;102993.94;;;2.32;100.00
71907;BME280;59781;52.090;5.030;2023-04-04T02:00:09;102993.31;;;2.05;100.00
71907;BME280;59781;52.090;5.030;2023-04-04T02:02:42;102990.28;;;2.14;100.00
71907;BME280;59781;52.090;5.030;2023-04-04T02:05:09;102987.22;;;2.23;100.00
71907;BME280;59781;52.090;5.030;2023-04-04T02:07:35;102985.47;;;2.02;100.00
71907;BME280;59781;52.090;5.030;2023-04-04T02:10:03;102993.13;;;2.10;100.00
71907;BME280;59781;52.090;5.030;2023-04-04T02:12:29;102994.94;;;2.09;100.00
71907;BME280;59781;52.090;5.030;2023-04-04T02:14:57;102998.59;;;2.07;100.00
71907;BME280;59781;52.090;5.030;2023-04-04T02:17:23;102999.56;;;2.04;100.00
71907;BME280;59781;52.090;5.030;2023-04-04T02:19:52;103003.22;;;2.01;100.00
71907;BME280;59781;52.090;5.030;2023-04-04T02:22:18;103003.66;;;1.91;100.00
71907;BME280;59781;52.090;5.030;2023-04-04T02:24:44;102998.91;;;1.99;100.00
71907;BME280;59781;52.090;5.030;2023-04-04T02:27:10;103003.50;;;1.94;100.00
71907;BME280;59781;52.090;5.030;2023-04-04T02:29:35;103004.22;;;1.77;100.00
71907;BME280;59781;52.090;5.030;2023-04-04T02:32:01;103000.00;;;1.93;100.00
71907;BME280;59781;52.090;5.030;2023-04-04T02:34:27;102995.97;;;1.83;100.00
71907;BME280;59781;52.090;5.030;2023-04-04T02:36:54;103004.06;;;1.58;100.00
71907;BME280;59781;52.090;5.030;2023-04-04T02:39:21;103003.53;;;1.72;100.00
71907;BME280;59781;52.090;5.030;2023-04-04T02:41:48;102996.66;;;1.66;100.00
71907;BME280;59781;52.090;5.030;2023-04-04T02:44:14;102995.56;;;1.72;100.00
71907;BME280;59781;52.090;5.030;2023-04-04T02:46:40;102993.81;;;1.71;100.00
71907;BME280;59781;52.090;5.030;2023-04-04T02:49:09;102979.31;;;1.80;100.00
71907;BME280;59781;52.090;5.030;2023-04-04T02:51:38;102981.69;;;1.64;100.00
71907;BME280;59781;52.090;5.030;2023-04-04T02:54:04;102982.56;;;1.64;100.00
71907;BME280;59781;52.090;5.030;2023-04-04T02:56:36;102970.00;;;1.46;100.00
71907;BME280;59781;52.090;5.030;2023-04-04T02:59:03;102977.81;;;1.51;100.00
71907;BME280;59781;52.090;5.030;2023-04-04T03:01:29;102965.47;;;1.50;100.00
71907;BME280;59781;52.090;5.030;2023-04-04T03:03:58;102966.31;;;1.50;100.00
71907;BME280;59781;52.090;5.030;2023-04-04T03:06:24;102967.41;;;1.44;100.00
71907;BME280;59781;52.090;5.030;2023-04-04T03:08:50;102965.19;;;1.56;100.00
71907;BME280;59781;52.090;5.030;2023-04-04T03:11:17;102967.19;;;1.51;100.00
71907;BME280;59781;52.090;5.030;2023-04-04T03:13:45;102966.91;;;1.35;100.00
71907;BME280;59781;52.090;5.030;2023-04-04T03:16:12;102970.94;;;1.00;100.00
71907;BME280;59781;52.090;5.030;2023-04-04T03:18:45;102975.91;;;0.84;100.00
71907;BME280;59781;52.090;5.030;2023-04-04T03:21:11;102977.97;;;0.76;100.00
71907;BME280;59781;52.090;5.030;2023-04-04T03:23:37;102973.47;;;0.78;100.00
71907;BME280;59781;52.090;5.030;2023-04-04T03:26:03;102974.13;;;0.84;100.00
71907;BME280;59781;52.090;5.030;2023-04-04T03:28:29;102978.25;;;0.93;100.00
71907;BME280;59781;52.090;5.030;2023-04-04T03:30:55;102977.53;;;0.88;100.00
71907;BME280;59781;52.090;5.030;2023-04-04T03:33:21;102970.41;;;0.65;100.00
71907;BME280;59781;52.090;5.030;2023-04-04T03:35:47;102975.97;;;0.57;100.00
71907;BME280;59781;52.090;5.030;2023-04-04T03:38:12;102974.63;;;0.46;100.00
71907;BME280;59781;52.090;5.030;2023-04-04T03:40:38;102971.06;;;0.47;100.00
71907;BME280;59781;52.090;5.030;2023-04-04T03:43:10;102973.81;;;0.44;100.00
71907;BME280;59781;52.090;5.030;2023-04-04T03:45:36;102982.25;;;0.30;100.00
71907;BME280;59781;52.090;5.030;2023-04-04T03:48:03;102979.63;;;0.30;100.00
71907;BME280;59781;52.090;5.030;2023-04-04T03:50:29;102982.66;;;0.18;100.00
71907;BME280;59781;52.090;5.030;2023-04-04T03:52:56;102981.09;;;0.12;100.00
71907;BME280;59781;52.090;5.030;2023-04-04T03:55:24;102970.63;;;0.08;100.00
71907;BME280;59781;52.090;5.030;2023-04-04T03:57:56;102982.81;;;0.13;100.00
71907;BME280;59781;52.090;5.030;2023-04-04T04:00:23;102976.66;;;0.13;100.00
71907;BME280;59781;52.090;5.030;2023-04-04T04:02:49;102980.28;;;0.10;100.00
71907;BME280;59781;52.090;5.030;2023-04-04T04:05:15;102976.56;;;0.16;100.00
71907;BME280;59781;52.090;5.030;2023-04-04T04:07:43;102982.16;;;0.33;100.00
71907;BME280;59781;52.090;5.030;2023-04-04T04:10:10;102977.09;;;0.25;100.00
71907;BME280;59781;52.090;5.030;2023-04-04T04:12:38;102974.09;;;0.36;100.00
71907;BME280;59781;52.090;5.030;2023-04-04T04:15:04;102972.31;;;0.37;100.00
71907;BME280;59781;52.090;5.030;2023-04-04T04:17:32;102977.78;;;0.32;100.00
71907;BME280;59781;52.090;5.030;2023-04-04T04:19:57;102977.09;;;0.52;100.00
71907;BME280;59781;52.090;5.030;2023-04-04T04:22:25;102969.66;;;0.62;100.00
71907;BME280;59781;52.090;5.030;2023-04-04T04:24:51;102971.44;;;0.36;100.00
71907;BME280;59781;52.090;5.030;2023-04-04T04:27:17;102972.78;;;0.48;100.00
71907;BME280;59781;52.090;5.030;2023-04-04T04:29:43;102981.13;;;0.37;100.00
71907;BME280;59781;52.090;5.030;2023-04-04T04:32:09;102972.91;;;0.20;100.00
71907;BME280;59781;52.090;5.030;2023-04-04T04:34:44;102973.97;;;0.14;100.00
71907;BME280;59781;52.090;5.030;2023-04-04T04:37:10;102981.19;;;0.09;100.00
71907;BME280;59781;52.090;5.030;2023-04-04T04:39:41;102982.97;;;0.09;100.00
71907;BME280;59781;52.090;5.030;2023-04-04T04:42:21;102982.03;;;0.10;100.00
71907;BME280;59781;52.090;5.030;2023-04-04T04:44:53;102977.09;;;0.01;100.00
71907;BME280;59781;52.090;5.030;2023-04-04T04:47:19;102986.84;;;-0.02;100.00
71907;BME280;59781;52.090;5.030;2023-04-04T04:49:44;102994.19;;;-0.10;100.00
71907;BME280;59781;52.090;5.030;2023-04-04T04:52:15;102996.28;;;-0.21;100.00
71907;BME280;59781;52.090;5.030;2023-04-04T04:54:42;103002.03;;;-0.35;100.00
71907;BME280;59781;52.090;5.030;2023-04-04T04:57:08;102995.69;;;-0.29;100.00
71907;BME280;59781;52.090;5.030;2023-04-04T04:59:37;102992.59;;;-0.15;100.00
71907;BME280;59781;52.090;5.030;2023-04-04T05:02:03;102997.13;;;0.08;100.00
71907;BME280;59781;52.090;5.030;2023-04-04T05:04:33;102989.94;;;0.38;100.00
71907;BME280;59781;52.090;5.030;2023-04-04T05:07:03;102991.56;;;0.42;100.00
71907;BME280;59781;52.090;5.030;2023-04-04T05:09:29;102991.63;;;0.14;100.00
71907;BME280;59781;52.090;5.030;2023-04-04T05:11:55;102993.31;;;0.16;100.00
71907;BME280;59781;52.090;5.030;2023-04-04T05:14:25;102997.41;;;0.00;100.00
71907;BME280;59781;52.090;5.030;2023-04-04T05:16:54;102982.22;;;0.05;100.00
71907;BME280;59781;52.090;5.030;2023-04-04T05:19:24;102988.19;;;0.12;100.00
71907;BME280;59781;52.090;5.030;2023-04-04T05:21:53;102991.94;;;0.05;100.00
71907;BME280;59781;52.090;5.030;2023-04-04T05:24:29;102987.69;;;0.01;100.00
71907;BME280;59781;52.090;5.030;2023-04-04T05:26:56;102989.59;;;-0.05;100.00
71907;BME280;59781;52.090;5.030;2023-04-04T05:29:21;102993.84;;;0.01;100.00
71907;BME280;59781;52.090;5.030;2023-04-04T05:31:47;102994.59;;;0.05;100.00
71907;BME280;59781;52.090;5.030;2023-04-04T05:34:17;102990.03;;;0.08;100.00
71907;BME280;59781;52.090;5.030;2023-04-04T05:36:43;102990.88;;;0.10;100.00
71907;BME280;59781;52.090;5.030;2023-04-04T05:39:09;103002.34;;;0.11;100.00
71907;BME280;59781;52.090;5.030;2023-04-04T05:41:41;102997.81;;;0.14;100.00
71907;BME280;59781;52.090;5.030;2023-04-04T05:44:12;103000.94;;;-0.01;100.00
71907;BME280;59781;52.090;5.030;2023-04-04T05:46:38;103009.22;;;-0.12;100.00
71907;BME280;59781;52.090;5.030;2023-04-04T05:49:04;103016.88;;;-0.03;100.00
71907;BME280;59781;52.090;5.030;2023-04-04T05:51:31;103014.28;;;-0.04;100.00
71907;BME280;59781;52.090;5.030;2023-04-04T05:54:18;103009.88;;;0.23;100.00
71907;BME280;59781;52.090;5.030;2023-04-04T05:56:44;102997.25;;;0.56;100.00
71907;BME280;59781;52.090;5.030;2023-04-04T05:59:25;102994.47;;;1.09;100.00
71907;BME280;59781;52.090;5.030;2023-04-04T06:01:58;102987.94;;;1.85;100.00
71907;BME280;59781;52.090;5.030;2023-04-04T06:04:24;102986.03;;;2.30;100.00
71907;BME280;59781;52.090;5.030;2023-04-04T06:06:52;102987.22;;;2.84;100.00
71907;BME280;59781;52.090;5.030;2023-04-04T06:09:19;102979.09;;;3.27;100.00
71907;BME280;59781;52.090;5.030;2023-04-04T06:11:45;102988.44;;;3.16;100.00
71907;BME280;59781;52.090;5.030;2023-04-04T06:14:11;102989.16;;;3.39;100.00
71907;BME280;59781;52.090;5.030;2023-04-04T06:16:38;102984.84;;;3.91;100.00
71907;BME280;59781;52.090;5.030;2023-04-04T06:19:04;102984.31;;;4.71;100.00
71907;BME280;59781;52.090;5.030;2023-04-04T06:21:30;102976.34;;;5.04;100.00
71907;BME280;59781;52.090;5.030;2023-04-04T06:23:56;102975.56;;;5.51;100.00
71907;BME280;59781;52.090;5.030;2023-04-04T06:26:22;102970.38;;;5.64;100.00
71907;BME280;59781;52.090;5.030;2023-04-04T06:28:49;102964.91;;;5.97;100.00
71907;BME280;59781;52.090;5.030;2023-04-04T06:31:23;102959.28;;;5.86;100.00
71907;BME280;59781;52.090;5.030;2023-04-04T06:33:51;102961.19;;;5.99;100.00
71907;BME280;59781;52.090;5.030;2023-04-04T06:36:19;102964.25;;;5.62;100.00
71907;BME280;59781;52.090;5.030;2023-04-04T06:38:46;102969.59;;;5.62;100.00
71907;BME280;59781;52.090;5.030;2023-04-04T06:41:16;102971.94;;;5.52;100.00
71907;BME280;59781;52.090;5.030;2023-04-04T06:43:44;102971.63;;;5.88;100.00
71907;BME280;59781;52.090;5.030;2023-04-04T06:46:11;102984.59;;;5.80;100.00
71907;BME280;59781;52.090;5.030;2023-04-04T06:48:37;102982.84;;;6.41;99.03
71907;BME280;59781;52.090;5.030;2023-04-04T06:51:07;102985.41;;;6.72;98.03
71907;BME280;59781;52.090;5.030;2023-04-04T06:53:34;102988.81;;;8.41;87.18
71907;BME280;59781;52.090;5.030;2023-04-04T06:56:00;102992.41;;;7.73;84.98
71907;BME280;59781;52.090;5.030;2023-04-04T06:58:26;102986.28;;;7.01;83.90
71907;BME280;59781;52.090;5.030;2023-04-04T07:00:52;102980.06;;;7.29;81.01
71907;BME280;59781;52.090;5.030;2023-04-04T07:03:18;102991.22;;;7.36;81.14
71907;BME280;59781;52.090;5.030;2023-04-04T07:05:44;102988.78;;;6.90;77.77
71907;BME280;59781;52.090;5.030;2023-04-04T07:08:10;102983.03;;;8.20;74.77
71907;BME280;59781;52.090;5.030;2023-04-04T07:10:36;102992.91;;;7.65;74.24
71907;BME280;59781;52.090;5.030;2023-04-04T07:13:02;102993.16;;;7.48;79.07
71907;BME280;59781;52.090;5.030;2023-04-04T07:15:28;102994.88;;;7.76;76.07
71907;BME280;59781;52.090;5.030;2023-04-04T07:17:54;102988.53;;;7.91;74.24
71907;BME280;59781;52.090;5.030;2023-04-04T07:20:19;102988.09;;;7.29;78.52
71907;BME280;59781;52.090;5.030;2023-04-04T07:22:45;102994.19;;;7.60;77.86
71907;BME280;59781;52.090;5.030;2023-04-04T07:25:12;102996.88;;;7.45;81.70
71907;BME280;59781;52.090;5.030;2023-04-04T07:27:38;102994.00;;;6.63;85.73
71907;BME280;59781;52.090;5.030;2023-04-04T07:30:05;102988.09;;;7.01;84.12
71907;BME280;59781;52.090;5.030;2023-04-04T07:32:32;102988.66;;;7.75;74.28
71907;BME280;59781;52.090;5.030;2023-04-04T07:34:58;102988.09;;;9.02;72.04
71907;BME280;59781;52.090;5.030;2023-04-04T07:37:24;102988.97;;;8.90;70.27
71907;BME280;59781;52.090;5.030;2023-04-04T07:39:51;102984.31;;;9.30;64.36
71907;BME280;59781;52.090;5.030;2023-04-04T07:42:17;102981.22;;;9.11;64.38
71907;BME280;59781;52.090;5.030;2023-04-04T07:44:53;102976.09;;;10.64;58.23
71907;BME280;59781;52.090;5.030;2023-04-04T07:47:19;102976.16;;;8.94;61.60
71907;BME280;59781;52.090;5.030;2023-04-04T07:49:45;102977.25;;;8.91;63.03
71907;BME280;59781;52.090;5.030;2023-04-04T07:52:11;102967.25;;;8.93;57.82
71907;BME280;59781;52.090;5.030;2023-04-04T07:54:37;102963.50;;;9.82;60.13
71907;BME280;59781;52.090;5.030;2023-04-04T07:57:04;102960.53;;;10.90;54.58
71907;BME280;59781;52.090;5.030;2023-04-04T07:59:34;102960.94;;;10.85;54.49
71907;BME280;59781;52.090;5.030;2023-04-04T08:02:01;102960.75;;;11.65;55.36
71907;BME280;59781;52.090;5.030;2023-04-04T08:04:26;102963.38;;;10.88;51.38
71907;BME280;59781;52.090;5.030;2023-04-04T08:06:52;102972.09;;;10.34;53.33
71907;BME280;59781;52.090;5.030;2023-04-04T08:09:18;102965.59;;;10.37;48.69
71907;BME280;59781;52.090;5.030;2023-04-04T08:11:43;102966.56;;;10.94;49.83
71907;BME280;59781;52.090;5.030;2023-04-04T08:14:09;102961.13;;;11.49;48.59
71907;BME280;59781;52.090;5.030;2023-04-04T08:16:38;102966.19;;;11.09;49.25
71907;BME280;59781;52.090;5.030;2023-04-04T08:19:04;102954.72;;;11.84;45.24
71907;BME280;59781;52.090;5.030;2023-04-04T08:21:31;102958.41;;;12.15;44.73
71907;BME280;59781;52.090;5.030;2023-04-04T08:23:57;102959.66;;;12.11;44.01
71907;BME280;59781;52.090;5.030;2023-04-04T08:26:22;102965.50;;;12.16;41.18
71907;BME280;59781;52.090;5.030;2023-04-04T08:28:48;102952.78;;;12.07;42.73
71907;BME280;59781;52.090;5.030;2023-04-04T08:31:14;102948.19;;;12.19;41.74
71907;BME280;59781;52.090;5.030;2023-04-04T08:33:40;102954.44;;;11.10;42.79
71907;BME280;59781;52.090;5.030;2023-04-04T08:36:06;102954.28;;;9.97;43.06
71907;BME280;59781;52.090;5.030;2023-04-04T08:38:32;102948.94;;;12.21;41.31
71907;BME280;59781;52.090;5.030;2023-04-04T08:40:57;102945.19;;;13.15;40.13
71907;BME280;59781;52.090;5.030;2023-04-04T08:43:23;102944.88;;;12.15;40.23
71907;BME280;59781;52.090;5.030;2023-04-04T08:45:52;102942.78;;;11.87;42.21
71907;BME280;59781;52.090;5.030;2023-04-04T08:48:20;102945.16;;;13.05;39.17
71907;BME280;59781;52.090;5.030;2023-04-04T08:50:48;102943.72;;;12.71;39.11
71907;BME280;59781;52.090;5.030;2023-04-04T08:53:14;102947.81;;;11.26;42.29
71907;BME280;59781;52.090;5.030;2023-04-04T08:55:42;102952.44;;;10.56;41.65
71907;BME280;59781;52.090;5.030;2023-04-04T08:58:08;102953.25;;;9.87;42.85
71907;BME280;59781;52.090;5.030;2023-04-04T09:00:34;102950.75;;;10.78;44.17
71907;BME280;59781;52.090;5.030;2023-04-04T09:03:15;102956.13;;;9.96;42.75
71907;BME280;59781;52.090;5.030;2023-04-04T09:05:47;102945.84;;;11.16;42.73
71907;BME280;59781;52.090;5.030;2023-04-04T09:08:15;102948.53;;;11.39;42.20
71907;BME280;59781;52.090;5.030;2023-04-04T09:10:43;102952.72;;;10.05;43.04
71907;BME280;59781;52.090;5.030;2023-04-04T09:13:10;102950.34;;;10.60;43.85
71907;BME280;59781;52.090;5.030;2023-04-04T09:15:40;102945.75;;;11.84;42.25
71907;BME280;59781;52.090;5.030;2023-04-04T09:18:10;102952.16;;;12.35;41.41
71907;BME280;59781;52.090;5.030;2023-04-04T09:20:41;102951.88;;;11.31;40.64
71907;BME280;59781;52.090;5.030;2023-04-04T09:23:10;102957.09;;;11.98;41.44
71907;BME280;59781;52.090;5.030;2023-04-04T09:28:15;102967.91;;;10.99;42.47
71907;BME280;59781;52.090;5.030;2023-04-04T09:30:42;102957.50;;;11.94;42.57
71907;BME280;59781;52.090;5.030;2023-04-04T09:33:12;102972.22;;;11.78;39.80
71907;BME280;59781;52.090;5.030;2023-04-04T09:38:39;102954.38;;;12.10;41.10
71907;BME280;59781;52.090;5.030;2023-04-04T09:41:12;102947.66;;;12.46;41.81
71907;BME280;59781;52.090;5.030;2023-04-04T09:43:40;102949.97;;;11.54;40.19
71907;BME280;59781;52.090;5.030;2023-04-04T09:46:09;102941.16;;;13.00;40.32
71907;BME280;59781;52.090;5.030;2023-04-04T09:48:35;102938.00;;;12.43;40.88
71907;BME280;59781;52.090;5.030;2023-04-04T09:51:06;102934.00;;;12.89;39.18
71907;BME280;59781;52.090;5.030;2023-04-04T09:53:38;102931.94;;;13.42;39.75
71907;BME280;59781;52.090;5.030;2023-04-04T09:56:06;102924.72;;;14.11;37.12
71907;BME280;59781;52.090;5.030;2023-04-04T09:58:32;102931.16;;;13.21;37.71
71907;BME280;59781;52.090;5.030;2023-04-04T10:01:06;102924.59;;;12.93;38.85
71907;BME280;59781;52.090;5.030;2023-04-04T10:03:36;102922.34;;;12.68;40.25
71907;BME280;59781;52.090;5.030;2023-04-04T10:06:05;102924.03;;;12.59;37.92
71907;BME280;59781;52.090;5.030;2023-04-04T10:08:32;102927.47;;;12.40;37.13
71907;BME280;59781;52.090;5.030;2023-04-04T10:11:01;102919.69;;;13.38;37.81
71907;BME280;59781;52.090;5.030;2023-04-04T10:13:34;102905.75;;;14.30;38.65
71907;BME280;59781;52.090;5.030;2023-04-04T10:16:03;102914.56;;;14.42;37.40
71907;BME280;59781;52.090;5.030;2023-04-04T10:18:33;102923.06;;;12.28;39.87
71907;BME280;59781;52.090;5.030;2023-04-04T10:21:02;102920.78;;;12.02;37.66
71907;BME280;59781;52.090;5.030;2023-04-04T10:23:30;102906.91;;;14.47;37.62
71907;BME280;59781;52.090;5.030;2023-04-04T10:25:57;102916.47;;;14.12;35.39
71907;BME280;59781;52.090;5.030;2023-04-04T10:28:24;102903.63;;;15.17;37.08
71907;BME280;59781;52.090;5.030;2023-04-04T10:36:49;102896.00;;;15.48;33.26
71907;BME280;59781;52.090;5.030;2023-04-04T10:39:26;102902.56;;;15.01;34.94
71907;BME280;59781;52.090;5.030;2023-04-04T10:41:57;102895.56;;;16.06;33.88
71907;BME280;59781;52.090;5.030;2023-04-04T10:44:37;102893.63;;;14.05;35.74
71907;BME280;59781;52.090;5.030;2023-04-04T10:47:18;102911.00;;;13.14;37.63
71907;BME280;59781;52.090;5.030;2023-04-04T10:49:48;102887.09;;;13.69;36.98
71907;BME280;59781;52.090;5.030;2023-04-04T10:52:19;102888.81;;;14.75;35.04
71907;BME280;59781;52.090;5.030;2023-04-04T10:54:57;102888.78;;;13.51;33.75
71907;BME280;59781;52.090;5.030;2023-04-04T10:57:32;102885.09;;;13.61;34.88
71907;BME280;59781;52.090;5.030;2023-04-04T11:00:03;102878.34;;;15.17;34.40
71907;BME280;59781;52.090;5.030;2023-04-04T11:05:33;102866.25;;;15.74;35.59
71907;BME280;59781;52.090;5.030;2023-04-04T11:08:21;102870.88;;;14.91;36.54
71907;BME280;59781;52.090;5.030;2023-04-04T11:10:51;102870.09;;;14.05;37.98
71907;BME280;59781;52.090;5.030;2023-04-04T11:13:24;102874.81;;;14.79;36.10
71907;BME280;59781;52.090;5.030;2023-04-04T11:16:03;102868.25;;;15.72;34.05
71907;BME280;59781;52.090;5.030;2023-04-04T11:21:09;102869.19;;;14.90;35.85
71907;BME280;59781;52.090;5.030;2023-04-04T11:26:33;102865.00;;;15.87;37.17
71907;BME280;59781;52.090;5.030;2023-04-04T11:29:02;102853.81;;;15.72;34.32
71907;BME280;59781;52.090;5.030;2023-04-04T11:31:34;102846.59;;;15.81;34.45
71907;BME280;59781;52.090;5.030;2023-04-04T11:34:09;102842.75;;;13.99;34.90
71907;BME280;59781;52.090;5.030;2023-04-04T11:39:25;102850.19;;;13.97;36.53
71907;BME280;59781;52.090;5.030;2023-04-04T11:42:01;102849.94;;;14.84;35.80
71907;BME280;59781;52.090;5.030;2023-04-04T11:44:39;102851.88;;;14.07;34.79
71907;BME280;59781;52.090;5.030;2023-04-04T11:49:41;102841.16;;;15.63;34.45
71907;BME280;59781;52.090;5.030;2023-04-04T11:52:16;102833.59;;;16.10;35.23
71907;BME280;59781;52.090;5.030;2023-04-04T11:54:45;102839.69;;;15.68;33.53
71907;BME280;59781;52.090;5.030;2023-04-04T11:57:13;102837.50;;;15.54;31.80
71907;BME280;59781;52.090;5.030;2023-04-04T11:59:42;102847.59;;;12.97;34.98
71907;BME280;59781;52.090;5.030;2023-04-04T12:02:10;102828.84;;;15.23;32.50
71907;BME280;59781;52.090;5.030;2023-04-04T12:04:38;102825.66;;;15.10;35.09
71907;BME280;59781;52.090;5.030;2023-04-04T12:07:06;102826.19;;;15.94;35.55
71907;BME280;59781;52.090;5.030;2023-04-04T12:09:33;102822.56;;;14.77;33.54
71907;BME280;59781;52.090;5.030;2023-04-04T12:11:59;102815.94;;;13.18;35.27
71907;BME280;59781;52.090;5.030;2023-04-04T12:14:25;102815.94;;;15.88;33.92
71907;BME280;59781;52.090;5.030;2023-04-04T12:16:53;102814.19;;;15.34;32.92
71907;BME280;59781;52.090;5.030;2023-04-04T12:19:23;102815.00;;;13.48;34.48
71907;BME280;59781;52.090;5.030;2023-04-04T12:21:50;102800.91;;;15.13;35.25
71907;BME280;59781;52.090;5.030;2023-04-04T12:24:18;102808.72;;;13.77;34.67
71907;BME280;59781;52.090;5.030;2023-04-04T12:26:48;102807.53;;;14.09;34.33
71907;BME280;59781;52.090;5.030;2023-04-04T12:29:20;102795.94;;;14.90;33.45
71907;BME280;59781;52.090;5.030;2023-04-04T12:31:48;102792.13;;;14.56;33.69
71907;BME280;59781;52.090;5.030;2023-04-04T12:34:28;102787.28;;;15.40;32.79
71907;BME280;59781;52.090;5.030;2023-04-04T12:36:57;102783.84;;;14.85;33.69
71907;BME280;59781;52.090;5.030;2023-04-04T12:39:26;102773.78;;;14.95;33.13
71907;BME280;59781;52.090;5.030;2023-04-04T12:41:57;102785.84;;;15.46;34.95
71907;BME280;59781;52.090;5.030;2023-04-04T12:44:32;102785.75;;;15.20;34.03
71907;BME280;59781;52.090;5.030;2023-04-04T12:47:05;102787.56;;;14.56;34.88
71907;BME280;59781;52.090;5.030;2023-04-04T12:49:40;102774.13;;;14.55;33.17
71907;BME280;59781;52.090;5.030;2023-04-04T12:52:16;102765.91;;;14.47;33.21
71907;BME280;59781;52.090;5.030;2023-04-04T12:54:45;102764.41;;;15.61;32.64
71907;BME280;59781;52.090;5.030;2023-04-04T12:57:20;102763.22;;;14.92;31.72
71907;BME280;59781;52.090;5.030;2023-04-04T12:59:48;102765.56;;;14.59;33.89
71907;BME280;59781;52.090;5.030;2023-04-04T13:02:17;102761.59;;;14.07;34.26
71907;BME280;59781;52.090;5.030;2023-04-04T13:04:51;102753.13;;;14.84;33.19
71907;BME280;59781;52.090;5.030;2023-04-04T13:07:29;102749.69;;;15.28;33.84
71907;BME280;59781;52.090;5.030;2023-04-04T13:10:00;102742.69;;;14.25;33.48
71907;BME280;59781;52.090;5.030;2023-04-04T13:12:57;102746.19;;;15.00;33.08
71907;BME280;59781;52.090;5.030;2023-04-04T13:16:08;102747.88;;;13.52;35.25
71907;BME280;59781;52.090;5.030;2023-04-04T13:18:36;102738.50;;;15.13;34.64
71907;BME280;59781;52.090;5.030;2023-04-04T13:21:06;102737.91;;;15.37;35.66
71907;BME280;59781;52.090;5.030;2023-04-04T13:23:36;102729.88;;;16.31;34.34
71907;BME280;59781;52.090;5.030;2023-04-04T13:26:08;102734.69;;;15.41;33.53
71907;BME280;59781;52.090;5.030;2023-04-04T13:28:35;102730.34;;;15.66;31.55
71907;BME280;59781;52.090;5.030;2023-04-04T13:31:05;102721.66;;;14.74;36.54